sensor_id;sensor_type;location;lat;lon;timestamp;pressure;altitude;pressure_sealevel;temperature;humidity
23427;BME280;41148;45.420;10.952;2023-04-01T00:00:52;99537.50;;;10.32;89.40
23427;BME280;41148;45.420;10.952;2023-04-01T00:03:20;99547.09;;;10.36;89.82
23427;BME280;41148;45.420;10.952;2023-04-01T00:05:49;99557.44;;;10.23;91.01
23427;BME280;41148;45.420;10.952;2023-04-01T00:08:16;99545.22;;;10.18;90.96
23427;BME280;41148;45.420;10.952;2023-04-01T00:10:44;99551.25;;;10.21;90.77
23427;BME280;41148;45.420;10.952;2023-04-01T00:13:12;99571.38;;;10.28;91.37
23427;BME280;41148;45.420;10.952;2023-04-01T00:15:40;99557.44;;;10.23;91.22
23427;BME280;41148;45.420;10.952;2023-04-01T00:18:08;99562.59;;;10.26;90.80
23427;BME280;41148;45.420;10.952;2023-04-01T00:20:35;99552.16;;;10.22;90.24
23427;BME280;41148;45.420;10.952;2023-04-01T00:23:03;99570.75;;;10.23;90.44
23427;BME280;41148;45.420;10.952;2023-04-01T00:25:31;99570.19;;;10.15;90.71
23427;BME280;41148;45.420;10.952;2023-04-01T00:27:59;99570.03;;;10.18;90.67
23427;BME280;41148;45.420;10.952;2023-04-01T00:30:27;99580.94;;;10.12;91.00
23427;BME280;41148;45.420;10.952;2023-04-01T00:32:54;99572.63;;;10.20;90.17
23427;BME280;41148;45.420;10.952;2023-04-01T00:35:23;99570.59;;;10.26;89.55
23427;BME280;41148;45.420;10.952;2023-04-01T00:37:50;99578.28;;;10.12;90.41
23427;BME280;41148;45.420;10.952;2023-04-01T00:40:40;99551.81;;;9.89;91.07
23427;BME280;41148;45.420;10.952;2023-04-01T00:43:19;99569.25;;;9.96;90.65
23427;BME280;41148;45.420;10.952;2023-04-01T00:45:48;99581.31;;;10.25;89.49
23427;BME280;41148;45.420;10.952;2023-04-01T00:48:19;99581.25;;;10.26;89.38
23427;BME280;41148;45.420;10.952;2023-04-01T00:50:52;99572.63;;;10.20;89.00
23427;BME280;41148;45.420;10.952;2023-04-01T00:53:22;99589.53;;;10.19;88.95
23427;BME280;41148;45.420;10.952;2023-04-01T00:56:04;99585.00;;;10.21;89.10
23427;BME280;41148;45.420;10.952;2023-04-01T00:58:36;99597.59;;;10.38;88.42
23427;BME280;41148;45.420;10.952;2023-04-01T01:01:05;99595.41;;;10.27;88.92
23427;BME280;41148;45.420;10.952;2023-04-01T01:03:33;99580.22;;;10.29;88.79
23427;BME280;41148;45.420;10.952;2023-04-01T01:06:08;99587.03;;;10.36;88.91
23427;BME280;41148;45.420;10.952;2023-04-01T01:11:11;99572.06;;;10.34;88.49
23427;BME280;41148;45.420;10.952;2023-04-01T01:13:58;99590.41;;;10.40;88.46
23427;BME280;41148;45.420;10.952;2023-04-01T01:16:36;99583.47;;;10.56;87.65
23427;BME280;41148;45.420;10.952;2023-04-01T01:22:20;99579.38;;;10.28;90.51
23427;BME280;41148;45.420;10.952;2023-04-01T01:25:10;99580.31;;;10.27;92.49
23427;BME280;41148;45.420;10.952;2023-04-01T01:27:42;99583.97;;;10.25;93.05
23427;BME280;41148;45.420;10.952;2023-04-01T01:38:19;99580.75;;;9.76;97.98
23427;BME280;41148;45.420;10.952;2023-04-01T01:40:55;99559.56;;;9.73;99.61
23427;BME280;41148;45.420;10.952;2023-04-01T01:43:30;99563.06;;;9.75;100.00
23427;BME280;41148;45.420;10.952;2023-04-01T01:46:05;99573.28;;;9.84;100.00
23427;BME280;41148;45.420;10.952;2023-04-01T01:48:36;99561.28;;;9.74;100.00
23427;BME280;41148;45.420;10.952;2023-04-01T01:51:07;99582.72;;;9.91;100.00
23427;BME280;41148;45.420;10.952;2023-04-01T01:53:35;99571.94;;;9.74;100.00
23427;BME280;41148;45.420;10.952;2023-04-01T01:56:04;99564.47;;;9.62;100.00
23427;BME280;41148;45.420;10.952;2023-04-01T01:58:40;99553.47;;;9.71;100.00
23427;BME280;41148;45.420;10.952;2023-04-01T02:01:15;99570.81;;;9.80;100.00
23427;BME280;41148;45.420;10.952;2023-04-01T02:03:45;99558.06;;;9.67;100.00
23427;BME280;41148;45.420;10.952;2023-04-01T02:06:16;99572.94;;;9.71;100.00
23427;BME280;41148;45.420;10.952;2023-04-01T02:08:59;99572.00;;;9.72;100.00
23427;BME280;41148;45.420;10.952;2023-04-01T02:11:31;99577.22;;;9.75;100.00
23427;BME280;41148;45.420;10.952;2023-04-01T02:16:33;99574.66;;;9.72;100.00
23427;BME280;41148;45.420;10.952;2023-04-01T02:19:03;99573.81;;;9.72;100.00
23427;BME280;41148;45.420;10.952;2023-04-01T02:21:35;99569.88;;;9.60;100.00
23427;BME280;41148;45.420;10.952;2023-04-01T02:24:07;99574.00;;;9.67;100.00
23427;BME280;41148;45.420;10.952;2023-04-01T02:26:35;99568.47;;;9.72;100.00
23427;BME280;41148;45.420;10.952;2023-04-01T02:29:03;99575.66;;;9.70;100.00
23427;BME280;41148;45.420;10.952;2023-04-01T02:31:33;99578.09;;;9.76;99.93
23427;BME280;41148;45.420;10.952;2023-04-01T02:34:03;99567.13;;;9.62;100.00
23427;BME280;41148;45.420;10.952;2023-04-01T02:36:31;99562.03;;;9.57;100.00
23427;BME280;41148;45.420;10.952;2023-04-01T02:38:59;99553.50;;;9.49;100.00
23427;BME280;41148;45.420;10.952;2023-04-01T02:41:29;99560.09;;;9.61;99.95
23427;BME280;41148;45.420;10.952;2023-04-01T02:43:57;99554.63;;;9.64;99.40
23427;BME280;41148;45.420;10.952;2023-04-01T02:46:25;99562.81;;;9.59;99.26
23427;BME280;41148;45.420;10.952;2023-04-01T02:48:53;99562.69;;;9.62;99.43
23427;BME280;41148;45.420;10.952;2023-04-01T02:51:21;99555.41;;;9.45;99.22
23427;BME280;41148;45.420;10.952;2023-04-01T02:53:48;99569.97;;;9.37;99.09
23427;BME280;41148;45.420;10.952;2023-04-01T02:56:15;99582.75;;;9.27;100.00
23427;BME280;41148;45.420;10.952;2023-04-01T02:58:43;99580.03;;;9.29;99.83
23427;BME280;41148;45.420;10.952;2023-04-01T03:01:10;99582.00;;;9.24;100.00
23427;BME280;41148;45.420;10.952;2023-04-01T03:03:38;99585.66;;;9.21;100.00
23427;BME280;41148;45.420;10.952;2023-04-01T03:06:11;99600.88;;;9.17;100.00
23427;BME280;41148;45.420;10.952;2023-04-01T03:08:39;99587.09;;;9.06;100.00
23427;BME280;41148;45.420;10.952;2023-04-01T03:11:07;99596.84;;;9.07;100.00
23427;BME280;41148;45.420;10.952;2023-04-01T03:13:36;99597.13;;;9.00;100.00
23427;BME280;41148;45.420;10.952;2023-04-01T03:16:05;99580.38;;;8.98;100.00
23427;BME280;41148;45.420;10.952;2023-04-01T03:18:32;99573.69;;;8.87;100.00
23427;BME280;41148;45.420;10.952;2023-04-01T03:21:32;99577.84;;;8.95;100.00
23427;BME280;41148;45.420;10.952;2023-04-01T03:24:01;99606.72;;;8.80;100.00
23427;BME280;41148;45.420;10.952;2023-04-01T03:26:29;99608.81;;;8.72;100.00
23427;BME280;41148;45.420;10.952;2023-04-01T03:28:57;99596.16;;;8.55;100.00
23427;BME280;41148;45.420;10.952;2023-04-01T03:31:25;99585.47;;;8.57;100.00
23427;BME280;41148;45.420;10.952;2023-04-01T03:33:56;99572.56;;;8.23;100.00
23427;BME280;41148;45.420;10.952;2023-04-01T03:36:23;99591.66;;;8.32;100.00
23427;BME280;41148;45.420;10.952;2023-04-01T03:38:51;99581.28;;;8.51;100.00
23427;BME280;41148;45.420;10.952;2023-04-01T03:41:25;99599.19;;;8.45;100.00
23427;BME280;41148;45.420;10.952;2023-04-01T03:43:53;99608.88;;;8.46;100.00
23427;BME280;41148;45.420;10.952;2023-04-01T03:46:22;99599.63;;;8.32;100.00
23427;BME280;41148;45.420;10.952;2023-04-01T03:48:49;99609.22;;;8.37;100.00
23427;BME280;41148;45.420;10.952;2023-04-01T03:51:17;99605.00;;;8.31;100.00
23427;BME280;41148;45.420;10.952;2023-04-01T03:53:44;99605.00;;;8.31;100.00
23427;BME280;41148;45.420;10.952;2023-04-01T03:56:12;99610.44;;;8.26;100.00
23427;BME280;41148;45.420;10.952;2023-04-01T03:58:40;99631.56;;;8.29;100.00
23427;BME280;41148;45.420;10.952;2023-04-01T04:01:17;99620.94;;;8.29;100.00
23427;BME280;41148;45.420;10.952;2023-04-01T04:03:46;99632.53;;;8.27;100.00
23427;BME280;41148;45.420;10.952;2023-04-01T04:06:17;99609.25;;;8.10;100.00
23427;BME280;41148;45.420;10.952;2023-04-01T04:08:46;99623.22;;;8.15;100.00
23427;BME280;41148;45.420;10.952;2023-04-01T04:11:14;99620.78;;;8.09;100.00
23427;BME280;41148;45.420;10.952;2023-04-01T04:13:43;99629.56;;;8.11;100.00
23427;BME280;41148;45.420;10.952;2023-04-01T04:16:12;99634.63;;;7.92;99.56
23427;BME280;41148;45.420;10.952;2023-04-01T04:18:44;99648.56;;;7.72;100.00
23427;BME280;41148;45.420;10.952;2023-04-01T04:21:13;99637.78;;;7.77;100.00
23427;BME280;41148;45.420;10.952;2023-04-01T04:23:42;99609.00;;;7.66;100.00
23427;BME280;41148;45.420;10.952;2023-04-01T04:26:13;99632.75;;;7.69;100.00
23427;BME280;41148;45.420;10.952;2023-04-01T04:28:41;99636.69;;;7.84;99.85
23427;BME280;41148;45.420;10.952;2023-04-01T04:31:08;99645.50;;;7.85;99.33
23427;BME280;41148;45.420;10.952;2023-04-01T04:33:36;99649.38;;;7.74;99.54
23427;BME280;41148;45.420;10.952;2023-04-01T04:36:04;99636.25;;;7.70;98.96
23427;BME280;41148;45.420;10.952;2023-04-01T04:38:32;99640.56;;;7.74;98.87
23427;BME280;41148;45.420;10.952;2023-04-01T04:41:00;99639.47;;;7.80;99.16
23427;BME280;41148;45.420;10.952;2023-04-01T04:43:27;99643.22;;;7.74;99.50
23427;BME280;41148;45.420;10.952;2023-04-01T04:45:56;99623.72;;;7.75;98.54
23427;BME280;41148;45.420;10.952;2023-04-01T04:48:23;99633.16;;;7.84;98.68
23427;BME280;41148;45.420;10.952;2023-04-01T04:50:51;99652.06;;;7.73;97.86
23427;BME280;41148;45.420;10.952;2023-04-01T04:53:22;99651.47;;;7.65;99.36
23427;BME280;41148;45.420;10.952;2023-04-01T04:55:50;99642.63;;;7.64;98.64
23427;BME280;41148;45.420;10.952;2023-04-01T04:58:43;99648.03;;;7.61;98.75
23427;BME280;41148;45.420;10.952;2023-04-01T05:01:16;99653.44;;;7.58;99.47
23427;BME280;41148;45.420;10.952;2023-04-01T05:03:44;99653.44;;;7.58;98.45
23427;BME280;41148;45.420;10.952;2023-04-01T05:06:13;99645.66;;;7.52;98.12
23427;BME280;41148;45.420;10.952;2023-04-01T05:08:43;99672.22;;;7.51;98.19
23427;BME280;41148;45.420;10.952;2023-04-01T05:11:13;99643.88;;;7.53;97.34
23427;BME280;41148;45.420;10.952;2023-04-01T05:13:42;99650.78;;;7.58;97.66
23427;BME280;41148;45.420;10.952;2023-04-01T05:16:12;99644.63;;;7.58;97.71
23427;BME280;41148;45.420;10.952;2023-04-01T05:18:40;99657.13;;;7.53;98.19
23427;BME280;41148;45.420;10.952;2023-04-01T05:21:09;99638.06;;;7.41;98.23
23427;BME280;41148;45.420;10.952;2023-04-01T05:23:38;99649.28;;;7.50;96.92
23427;BME280;41148;45.420;10.952;2023-04-01T05:26:07;99637.63;;;7.55;95.94
23427;BME280;41148;45.420;10.952;2023-04-01T05:28:35;99661.66;;;7.77;95.32
23427;BME280;41148;45.420;10.952;2023-04-01T05:31:03;99656.91;;;7.60;95.79
23427;BME280;41148;45.420;10.952;2023-04-01T05:33:35;99651.03;;;7.77;94.19
23427;BME280;41148;45.420;10.952;2023-04-01T05:36:11;99668.50;;;7.84;94.09
23427;BME280;41148;45.420;10.952;2023-04-01T05:38:40;99655.50;;;7.77;94.86
23427;BME280;41148;45.420;10.952;2023-04-01T05:41:10;99658.72;;;7.58;95.51
23427;BME280;41148;45.420;10.952;2023-04-01T05:43:42;99668.56;;;7.55;96.90
23427;BME280;41148;45.420;10.952;2023-04-01T05:46:32;99663.28;;;7.55;100.00
23427;BME280;41148;45.420;10.952;2023-04-01T05:49:14;99664.72;;;7.65;99.28
23427;BME280;41148;45.420;10.952;2023-04-01T05:51:42;99667.50;;;7.60;99.78
23427;BME280;41148;45.420;10.952;2023-04-01T05:54:09;99669.25;;;7.88;97.53
23427;BME280;41148;45.420;10.952;2023-04-01T05:56:37;99676.66;;;8.04;97.22
23427;BME280;41148;45.420;10.952;2023-04-01T05:59:05;99679.63;;;7.95;99.74
23427;BME280;41148;45.420;10.952;2023-04-01T06:01:33;99667.72;;;8.07;98.71
23427;BME280;41148;45.420;10.952;2023-04-01T06:04:00;99656.19;;;8.08;97.90
23427;BME280;41148;45.420;10.952;2023-04-01T06:06:29;99661.34;;;8.13;98.12
23427;BME280;41148;45.420;10.952;2023-04-01T06:09:17;99682.53;;;8.41;97.92
23427;BME280;41148;45.420;10.952;2023-04-01T06:20:58;99675.47;;;8.65;95.28
23427;BME280;41148;45.420;10.952;2023-04-01T06:37:03;99692.09;;;9.40;94.50
23427;BME280;41148;45.420;10.952;2023-04-01T06:40:17;99701.81;;;9.63;94.16
23427;BME280;41148;45.420;10.952;2023-04-01T06:45:56;99692.06;;;10.07;96.71
23427;BME280;41148;45.420;10.952;2023-04-01T06:52:01;99694.88;;;11.81;85.87
23427;BME280;41148;45.420;10.952;2023-04-01T06:58:21;99696.00;;;11.00;91.18
23427;BME280;41148;45.420;10.952;2023-04-01T07:00:56;99691.31;;;11.05;91.50
23427;BME280;41148;45.420;10.952;2023-04-01T07:03:44;99701.56;;;10.75;93.33
23427;BME280;41148;45.420;10.952;2023-04-01T07:06:30;99709.94;;;10.86;93.07
23427;BME280;41148;45.420;10.952;2023-04-01T07:09:04;99702.69;;;11.09;91.24
23427;BME280;41148;45.420;10.952;2023-04-01T07:11:56;99706.84;;;11.35;87.92
23427;BME280;41148;45.420;10.952;2023-04-01T07:15:16;99709.31;;;11.58;86.22
23427;BME280;41148;45.420;10.952;2023-04-01T07:17:48;99710.50;;;11.70;84.38
23427;BME280;41148;45.420;10.952;2023-04-01T07:22:49;99707.19;;;12.20;81.59
23427;BME280;41148;45.420;10.952;2023-04-01T07:25:34;99710.50;;;12.59;78.74
23427;BME280;41148;45.420;10.952;2023-04-01T07:28:21;99714.22;;;12.74;78.06
23427;BME280;41148;45.420;10.952;2023-04-01T07:31:09;99714.38;;;13.04;76.51
23427;BME280;41148;45.420;10.952;2023-04-01T07:34:25;99705.41;;;13.23;75.40
23427;BME280;41148;45.420;10.952;2023-04-01T07:36:48;99698.63;;;13.80;72.37
23427;BME280;41148;45.420;10.952;2023-04-01T07:42:17;99710.78;;;15.34;65.04
23427;BME280;41148;45.420;10.952;2023-04-01T07:48:14;99721.47;;;14.63;65.83
23427;BME280;41148;45.420;10.952;2023-04-01T07:50:58;99721.59;;;14.46;67.71
23427;BME280;41148;45.420;10.952;2023-04-01T08:17:09;99696.97;;;16.90;57.44
23427;BME280;41148;45.420;10.952;2023-04-01T08:22:57;99712.06;;;15.98;60.11
23427;BME280;41148;45.420;10.952;2023-04-01T08:25:32;99709.88;;;15.91;60.21
23427;BME280;41148;45.420;10.952;2023-04-01T08:30:43;99715.78;;;15.83;60.33
23427;BME280;41148;45.420;10.952;2023-04-01T08:33:30;99707.06;;;15.65;61.82
23427;BME280;41148;45.420;10.952;2023-04-01T08:36:19;99713.53;;;15.90;60.97
23427;BME280;41148;45.420;10.952;2023-04-01T08:39:11;99707.25;;;15.48;62.34
23427;BME280;41148;45.420;10.952;2023-04-01T08:56:40;99700.81;;;15.79;60.73
23427;BME280;41148;45.420;10.952;2023-04-01T08:59:30;99720.56;;;15.78;61.05
23427;BME280;41148;45.420;10.952;2023-04-01T09:19:24;99722.84;;;18.03;55.82
23427;BME280;41148;45.420;10.952;2023-04-01T09:28:22;99712.25;;;17.89;54.98
23427;BME280;41148;45.420;10.952;2023-04-01T09:45:43;99720.06;;;16.40;59.27
23427;BME280;41148;45.420;10.952;2023-04-01T09:54:20;99726.75;;;16.74;56.62
23427;BME280;41148;45.420;10.952;2023-04-01T09:57:07;99710.09;;;16.42;49.95
23427;BME280;41148;45.420;10.952;2023-04-01T10:06:04;99709.00;;;16.71;46.39
23427;BME280;41148;45.420;10.952;2023-04-01T10:08:48;99712.09;;;16.78;46.28
23427;BME280;41148;45.420;10.952;2023-04-01T10:14:30;99704.94;;;16.91;45.75
23427;BME280;41148;45.420;10.952;2023-04-01T10:25:18;99683.28;;;17.05;42.99
23427;BME280;41148;45.420;10.952;2023-04-01T11:01:43;99659.72;;;17.71;45.54
23427;BME280;41148;45.420;10.952;2023-04-01T11:05:17;99666.19;;;17.56;45.63
23427;BME280;41148;45.420;10.952;2023-04-01T11:13:41;99659.28;;;17.77;43.11
23427;BME280;41148;45.420;10.952;2023-04-01T11:19:14;99657.66;;;17.74;40.61
23427;BME280;41148;45.420;10.952;2023-04-01T11:21:59;99662.06;;;17.63;41.18
23427;BME280;41148;45.420;10.952;2023-04-01T11:25:11;99663.38;;;17.70;40.44
23427;BME280;41148;45.420;10.952;2023-04-01T11:27:53;99656.78;;;17.74;40.01
23427;BME280;41148;45.420;10.952;2023-04-01T11:30:59;99655.59;;;17.65;39.15
23427;BME280;41148;45.420;10.952;2023-04-01T11:33:38;99654.97;;;17.62;38.10
23427;BME280;41148;45.420;10.952;2023-04-01T11:56:59;99644.44;;;17.95;37.77
23427;BME280;41148;45.420;10.952;2023-04-01T12:08:23;99638.03;;;18.20;40.59
23427;BME280;41148;45.420;10.952;2023-04-01T12:14:13;99638.41;;;18.62;40.19
23427;BME280;41148;45.420;10.952;2023-04-01T12:19:45;99639.09;;;18.77;36.20
23427;BME280;41148;45.420;10.952;2023-04-01T12:31:47;99614.19;;;18.84;33.50
23427;BME280;41148;45.420;10.952;2023-04-01T12:37:29;99629.28;;;18.87;33.35
23427;BME280;41148;45.420;10.952;2023-04-01T12:46:16;99611.88;;;19.25;32.25
23427;BME280;41148;45.420;10.952;2023-04-01T12:49:11;99615.03;;;19.30;31.78
23427;BME280;41148;45.420;10.952;2023-04-01T12:57:20;99606.19;;;18.72;33.22
23427;BME280;41148;45.420;10.952;2023-04-01T13:11:26;99603.75;;;19.36;33.02
23427;BME280;41148;45.420;10.952;2023-04-01T13:13:47;99597.34;;;19.48;32.07
23427;BME280;41148;45.420;10.952;2023-04-01T13:19:11;99595.13;;;19.53;32.78
23427;BME280;41148;45.420;10.952;2023-04-01T13:21:51;99595.50;;;19.49;32.87
23427;BME280;41148;45.420;10.952;2023-04-01T13:24:42;99586.44;;;19.27;32.57
23427;BME280;41148;45.420;10.952;2023-04-01T13:35:26;99575.50;;;19.62;31.45
23427;BME280;41148;45.420;10.952;2023-04-01T13:40:54;99574.13;;;19.57;32.22
23427;BME280;41148;45.420;10.952;2023-04-01T13:43:40;99565.22;;;19.23;31.01
23427;BME280;41148;45.420;10.952;2023-04-01T14:00:46;99537.00;;;19.27;30.26
23427;BME280;41148;45.420;10.952;2023-04-01T14:06:31;99539.31;;;19.20;30.86
23427;BME280;41148;45.420;10.952;2023-04-01T14:09:11;99541.63;;;19.36;29.19
23427;BME280;41148;45.420;10.952;2023-04-01T14:12:09;99538.09;;;19.24;29.88
23427;BME280;41148;45.420;10.952;2023-04-01T14:17:41;99524.75;;;18.89;30.84
23427;BME280;41148;45.420;10.952;2023-04-01T14:23:09;99515.69;;;19.01;30.77
23427;BME280;41148;45.420;10.952;2023-04-01T14:31:27;99518.34;;;19.67;29.31
23427;BME280;41148;45.420;10.952;2023-04-01T14:39:35;99500.28;;;19.67;29.40
23427;BME280;41148;45.420;10.952;2023-04-01T14:42:07;99495.78;;;19.57;29.87
23427;BME280;41148;45.420;10.952;2023-04-01T14:45:02;99490.81;;;19.73;30.30
23427;BME280;41148;45.420;10.952;2023-04-01T14:47:53;99500.56;;;19.64;30.24
23427;BME280;41148;45.420;10.952;2023-04-01T14:50:24;99491.09;;;19.70;30.30
23427;BME280;41148;45.420;10.952;2023-04-01T14:52:58;99490.75;;;19.84;29.66
23427;BME280;41148;45.420;10.952;2023-04-01T14:58:09;99496.81;;;19.44;30.26
23427;BME280;41148;45.420;10.952;2023-04-01T15:03:29;99499.31;;;19.25;31.03
23427;BME280;41148;45.420;10.952;2023-04-01T15:14:31;99484.06;;;19.35;30.35
23427;BME280;41148;45.420;10.952;2023-04-01T15:23:21;99478.25;;;19.08;30.48
23427;BME280;41148;45.420;10.952;2023-04-01T15:28:36;99481.56;;;19.11;30.37
23427;BME280;41148;45.420;10.952;2023-04-01T15:31:32;99478.22;;;19.19;30.33
23427;BME280;41148;45.420;10.952;2023-04-01T15:37:08;99486.63;;;19.37;30.34
23427;BME280;41148;45.420;10.952;2023-04-01T15:56:06;99484.38;;;19.10;28.95
23427;BME280;41148;45.420;10.952;2023-04-01T16:01:31;99491.97;;;19.16;29.09
23427;BME280;41148;45.420;10.952;2023-04-01T16:10:17;99486.94;;;19.23;28.37
23427;BME280;41148;45.420;10.952;2023-04-01T16:12:58;99480.06;;;19.19;28.57
23427;BME280;41148;45.420;10.952;2023-04-01T16:21:21;99466.22;;;19.12;28.07
23427;BME280;41148;45.420;10.952;2023-04-01T16:23:59;99457.53;;;18.97;27.83
23427;BME280;41148;45.420;10.952;2023-04-01T16:32:12;99474.09;;;19.04;28.23
23427;BME280;41148;45.420;10.952;2023-04-01T16:43:20;99466.34;;;18.99;27.58
23427;BME280;41148;45.420;10.952;2023-04-01T16:48:28;99470.16;;;18.97;27.01
23427;BME280;41148;45.420;10.952;2023-04-01T16:51:12;99469.81;;;18.79;27.51
23427;BME280;41148;45.420;10.952;2023-04-01T16:54:01;99476.34;;;18.76;27.16
23427;BME280;41148;45.420;10.952;2023-04-01T16:56:48;99472.28;;;18.71;27.45
23427;BME280;41148;45.420;10.952;2023-04-01T16:59:24;99470.56;;;18.70;27.58
23427;BME280;41148;45.420;10.952;2023-04-01T17:02:04;99469.84;;;18.68;27.76
23427;BME280;41148;45.420;10.952;2023-04-01T17:04:49;99472.81;;;18.65;27.29
23427;BME280;41148;45.420;10.952;2023-04-01T17:13:06;99477.28;;;18.42;27.39
23427;BME280;41148;45.420;10.952;2023-04-01T17:21:10;99475.22;;;18.34;28.20
23427;BME280;41148;45.420;10.952;2023-04-01T17:23:51;99482.44;;;18.34;28.44
23427;BME280;41148;45.420;10.952;2023-04-01T17:26:42;99476.81;;;18.37;28.58
23427;BME280;41148;45.420;10.952;2023-04-01T17:32:35;99484.03;;;18.36;29.43
23427;BME280;41148;45.420;10.952;2023-04-01T17:35:16;99483.19;;;18.24;29.71
23427;BME280;41148;45.420;10.952;2023-04-01T17:43:40;99479.81;;;17.98;30.98
23427;BME280;41148;45.420;10.952;2023-04-01T17:51:40;99484.41;;;17.85;33.33
23427;BME280;41148;45.420;10.952;2023-04-01T18:19:51;99523.22;;;17.35;39.18
23427;BME280;41148;45.420;10.952;2023-04-01T18:22:29;99527.94;;;17.20;39.74
23427;BME280;41148;45.420;10.952;2023-04-01T18:25:12;99524.31;;;17.08;40.21
23427;BME280;41148;45.420;10.952;2023-04-01T18:27:48;99526.47;;;17.03;40.36
23427;BME280;41148;45.420;10.952;2023-04-01T18:30:28;99536.03;;;17.07;40.66
23427;BME280;41148;45.420;10.952;2023-04-01T18:38:44;99563.84;;;16.82;42.19
23427;BME280;41148;45.420;10.952;2023-04-01T18:41:22;99554.94;;;16.82;42.16
23427;BME280;41148;45.420;10.952;2023-04-01T18:44:23;99564.94;;;16.80;42.63
23427;BME280;41148;45.420;10.952;2023-04-01T18:49:46;99557.47;;;16.58;43.24
23427;BME280;41148;45.420;10.952;2023-04-01T18:52:17;99572.88;;;16.56;43.48
23427;BME280;41148;45.420;10.952;2023-04-01T18:55:53;99570.28;;;16.54;43.14
23427;BME280;41148;45.420;10.952;2023-04-01T18:58:17;99574.59;;;16.44;44.34
23427;BME280;41148;45.420;10.952;2023-04-01T19:01:12;99590.16;;;16.39;44.08
23427;BME280;41148;45.420;10.952;2023-04-01T19:06:34;99583.19;;;16.24;44.45
23427;BME280;41148;45.420;10.952;2023-04-01T19:17:50;99596.78;;;15.95;45.13
23427;BME280;41148;45.420;10.952;2023-04-01T19:21:14;99591.69;;;15.91;45.39
23427;BME280;41148;45.420;10.952;2023-04-01T19:26:05;99599.81;;;15.77;46.30
23427;BME280;41148;45.420;10.952;2023-04-01T19:31:37;99612.19;;;15.79;45.85
23427;BME280;41148;45.420;10.952;2023-04-01T19:52:28;99630.66;;;15.57;41.32
23427;BME280;41148;45.420;10.952;2023-04-01T20:00:43;99633.63;;;15.66;41.26
23427;BME280;41148;45.420;10.952;2023-04-01T20:14:42;99631.09;;;15.22;43.20
23427;BME280;41148;45.420;10.952;2023-04-01T20:20:03;99627.53;;;15.36;43.21
23427;BME280;41148;45.420;10.952;2023-04-01T20:36:36;99640.81;;;14.96;44.77
23427;BME280;41148;45.420;10.952;2023-04-01T20:52:41;99657.06;;;14.79;42.82
23427;BME280;41148;45.420;10.952;2023-04-01T20:58:11;99645.84;;;14.72;43.12
23427;BME280;41148;45.420;10.952;2023-04-01T21:03:56;99661.84;;;14.74;44.77
23427;BME280;41148;45.420;10.952;2023-04-01T21:06:47;99665.47;;;14.73;47.21
23427;BME280;41148;45.420;10.952;2023-04-01T21:09:35;99664.72;;;14.71;49.17
23427;BME280;41148;45.420;10.952;2023-04-01T21:35:32;99678.44;;;15.09;62.37
23427;BME280;41148;45.420;10.952;2023-04-01T21:46:48;99688.41;;;15.07;62.80
23427;BME280;41148;45.420;10.952;2023-04-01T22:03:42;99693.19;;;15.02;63.52
23427;BME280;41148;45.420;10.952;2023-04-01T22:06:40;99688.78;;;15.01;63.73
23427;BME280;41148;45.420;10.952;2023-04-01T22:09:13;99697.19;;;14.95;63.79
23427;BME280;41148;45.420;10.952;2023-04-01T22:11:51;99692.63;;;14.97;64.00
23427;BME280;41148;45.420;10.952;2023-04-01T22:14:49;99666.44;;;14.86;64.08
23427;BME280;41148;45.420;10.952;2023-04-01T22:17:30;99682.66;;;14.99;64.28
23427;BME280;41148;45.420;10.952;2023-04-01T22:20:38;99677.66;;;14.93;64.53
23427;BME280;41148;45.420;10.952;2023-04-01T22:23:29;99681.97;;;14.95;64.76
23427;BME280;41148;45.420;10.952;2023-04-01T22:28:46;99680.44;;;14.91;64.88
23427;BME280;41148;45.420;10.952;2023-04-01T22:31:28;99683.97;;;14.92;65.11
23427;BME280;41148;45.420;10.952;2023-04-01T22:34:08;99687.16;;;14.98;64.95
23427;BME280;41148;45.420;10.952;2023-04-01T22:37:17;99666.63;;;14.83;65.14
23427;BME280;41148;45.420;10.952;2023-04-01T22:39:54;99680.94;;;14.98;65.15
23427;BME280;41148;45.420;10.952;2023-04-01T22:45:06;99676.69;;;14.94;65.22
23427;BME280;41148;45.420;10.952;2023-04-01T22:50:35;99675.81;;;14.93;64.97
23427;BME280;41148;45.420;10.952;2023-04-01T22:53:18;99681.03;;;14.96;64.72
23427;BME280;41148;45.420;10.952;2023-04-01T22:55:51;99681.13;;;15.09;64.12
23427;BME280;41148;45.420;10.952;2023-04-01T22:58:35;99681.69;;;15.14;63.36
23427;BME280;41148;45.420;10.952;2023-04-01T23:01:11;99688.19;;;15.10;63.44
23427;BME280;41148;45.420;10.952;2023-04-01T23:03:41;99672.47;;;15.04;63.43
23427;BME280;41148;45.420;10.952;2023-04-01T23:06:34;99686.38;;;15.10;63.27
23427;BME280;41148;45.420;10.952;2023-04-01T23:09:12;99692.59;;;14.82;66.54
23427;BME280;41148;45.420;10.952;2023-04-01T23:11:52;99688.03;;;14.54;69.21
23427;BME280;41148;45.420;10.952;2023-04-01T23:17:28;99689.47;;;14.30;70.40
23427;BME280;41148;45.420;10.952;2023-04-01T23:22:38;99697.09;;;14.22;70.84
23427;BME280;41148;45.420;10.952;2023-04-01T23:38:22;99695.06;;;13.95;70.43
23427;BME280;41148;45.420;10.952;2023-04-01T23:40:52;99689.13;;;13.90;70.71
23427;BME280;41148;45.420;10.952;2023-04-01T23:43:29;99697.97;;;14.07;70.72
23427;BME280;41148;45.420;10.952;2023-04-01T23:46:00;99696.69;;;13.98;70.68
23427;BME280;41148;45.420;10.952;2023-04-01T23:48:33;99694.72;;;14.01;70.88
23427;BME280;41148;45.420;10.952;2023-04-01T23:51:03;99704.47;;;14.02;70.92
23427;BME280;41148;45.420;10.952;2023-04-01T23:53:33;99702.31;;;13.93;71.45
23427;BME280;41148;45.420;10.952;2023-04-01T23:56:02;99696.09;;;13.93;71.85
23427;BME280;41148;45.420;10.952;2023-04-01T23:58:50;99696.00;;;13.94;71.73
